sensor_id;sensor_type;location;lat;lon;timestamp;P1;durP1;ratioP1;P2;durP2;ratioP2
80293;SDS011;69594;43.516;1.498;2024-03-08T00:00:13;2.92;;;1.20;;
80293;SDS011;69594;43.516;1.498;2024-03-08T00:02:40;5.00;;;1.10;;
80293;SDS011;69594;43.516;1.498;2024-03-08T00:05:06;3.13;;;0.80;;
80293;SDS011;69594;43.516;1.498;2024-03-08T00:07:35;4.82;;;1.10;;
80293;SDS011;69594;43.516;1.498;2024-03-08T00:10:02;5.28;;;1.30;;
80293;SDS011;69594;43.516;1.498;2024-03-08T00:12:28;4.57;;;1.17;;
80293;SDS011;69594;43.516;1.498;2024-03-08T00:14:53;5.32;;;1.08;;
80293;SDS011;69594;43.516;1.498;2024-03-08T00:17:20;4.30;;;1.05;;
80293;SDS011;69594;43.516;1.498;2024-03-08T00:19:45;6.10;;;1.63;;
80293;SDS011;69594;43.516;1.498;2024-03-08T00:22:11;5.03;;;1.30;;
80293;SDS011;69594;43.516;1.498;2024-03-08T00:24:37;4.87;;;1.10;;
80293;SDS011;69594;43.516;1.498;2024-03-08T00:27:02;4.53;;;1.30;;
80293;SDS011;69594;43.516;1.498;2024-03-08T00:29:29;5.00;;;0.98;;
80293;SDS011;69594;43.516;1.498;2024-03-08T00:31:55;3.90;;;1.03;;
80293;SDS011;69594;43.516;1.498;2024-03-08T00:34:20;5.83;;;0.90;;
80293;SDS011;69594;43.516;1.498;2024-03-08T00:36:46;5.15;;;1.13;;
80293;SDS011;69594;43.516;1.498;2024-03-08T00:39:12;4.25;;;1.00;;
80293;SDS011;69594;43.516;1.498;2024-03-08T00:41:38;5.43;;;1.20;;
80293;SDS011;69594;43.516;1.498;2024-03-08T00:44:03;1.87;;;0.80;;
80293;SDS011;69594;43.516;1.498;2024-03-08T00:46:29;3.30;;;0.82;;
80293;SDS011;69594;43.516;1.498;2024-03-08T00:48:56;4.97;;;1.15;;
80293;SDS011;69594;43.516;1.498;2024-03-08T00:51:22;1.47;;;0.90;;
80293;SDS011;69594;43.516;1.498;2024-03-08T00:53:47;7.03;;;1.13;;
80293;SDS011;69594;43.516;1.498;2024-03-08T00:56:13;5.87;;;1.10;;
80293;SDS011;69594;43.516;1.498;2024-03-08T00:58:39;6.18;;;1.20;;
80293;SDS011;69594;43.516;1.498;2024-03-08T01:01:05;5.20;;;1.17;;
80293;SDS011;69594;43.516;1.498;2024-03-08T01:03:30;5.60;;;1.17;;
80293;SDS011;69594;43.516;1.498;2024-03-08T01:05:57;4.20;;;1.10;;
80293;SDS011;69594;43.516;1.498;2024-03-08T01:08:26;3.85;;;1.05;;
80293;SDS011;69594;43.516;1.498;2024-03-08T01:10:52;4.00;;;1.17;;
80293;SDS011;69594;43.516;1.498;2024-03-08T01:13:18;4.40;;;0.90;;
80293;SDS011;69594;43.516;1.498;2024-03-08T01:15:44;3.67;;;1.27;;
80293;SDS011;69594;43.516;1.498;2024-03-08T01:18:11;4.43;;;1.17;;
80293;SDS011;69594;43.516;1.498;2024-03-08T01:20:36;7.73;;;1.23;;
80293;SDS011;69594;43.516;1.498;2024-03-08T01:23:02;4.43;;;1.08;;
80293;SDS011;69594;43.516;1.498;2024-03-08T01:25:28;4.97;;;1.40;;
80293;SDS011;69594;43.516;1.498;2024-03-08T01:27:54;5.73;;;1.57;;
80293;SDS011;69594;43.516;1.498;2024-03-08T01:30:20;3.40;;;1.13;;
80293;SDS011;69594;43.516;1.498;2024-03-08T01:32:45;4.25;;;1.42;;
80293;SDS011;69594;43.516;1.498;2024-03-08T01:35:11;5.00;;;1.10;;
80293;SDS011;69594;43.516;1.498;2024-03-08T01:37:36;5.07;;;1.20;;
80293;SDS011;69594;43.516;1.498;2024-03-08T01:40:02;4.80;;;1.02;;
80293;SDS011;69594;43.516;1.498;2024-03-08T01:42:28;2.03;;;1.00;;
80293;SDS011;69594;43.516;1.498;2024-03-08T01:44:54;6.70;;;1.23;;
80293;SDS011;69594;43.516;1.498;2024-03-08T01:47:20;5.28;;;1.17;;
80293;SDS011;69594;43.516;1.498;2024-03-08T01:49:51;3.30;;;1.00;;
80293;SDS011;69594;43.516;1.498;2024-03-08T01:52:17;2.78;;;1.17;;
80293;SDS011;69594;43.516;1.498;2024-03-08T01:54:44;5.70;;;1.00;;
80293;SDS011;69594;43.516;1.498;2024-03-08T01:57:10;4.30;;;1.15;;
80293;SDS011;69594;43.516;1.498;2024-03-08T01:59:36;4.00;;;1.20;;
80293;SDS011;69594;43.516;1.498;2024-03-08T02:02:02;4.87;;;1.10;;
80293;SDS011;69594;43.516;1.498;2024-03-08T02:04:29;2.78;;;1.00;;
80293;SDS011;69594;43.516;1.498;2024-03-08T02:06:58;3.25;;;0.82;;
80293;SDS011;69594;43.516;1.498;2024-03-08T02:09:24;2.13;;;0.90;;
80293;SDS011;69594;43.516;1.498;2024-03-08T02:11:52;3.95;;;0.88;;
80293;SDS011;69594;43.516;1.498;2024-03-08T02:14:19;5.82;;;1.10;;
80293;SDS011;69594;43.516;1.498;2024-03-08T02:16:45;4.27;;;1.10;;
80293;SDS011;69594;43.516;1.498;2024-03-08T02:19:10;7.32;;;1.10;;
80293;SDS011;69594;43.516;1.498;2024-03-08T02:21:36;4.70;;;0.97;;
80293;SDS011;69594;43.516;1.498;2024-03-08T02:24:03;2.75;;;0.88;;
80293;SDS011;69594;43.516;1.498;2024-03-08T02:26:28;5.93;;;1.03;;
80293;SDS011;69594;43.516;1.498;2024-03-08T02:28:54;4.05;;;1.10;;
80293;SDS011;69594;43.516;1.498;2024-03-08T02:31:20;5.60;;;1.13;;
80293;SDS011;69594;43.516;1.498;2024-03-08T02:33:45;3.83;;;1.45;;
80293;SDS011;69594;43.516;1.498;2024-03-08T02:36:12;5.40;;;1.50;;
80293;SDS011;69594;43.516;1.498;2024-03-08T02:38:38;4.70;;;1.00;;
80293;SDS011;69594;43.516;1.498;2024-03-08T02:41:06;4.43;;;1.10;;
80293;SDS011;69594;43.516;1.498;2024-03-08T02:43:33;7.57;;;1.98;;
80293;SDS011;69594;43.516;1.498;2024-03-08T02:45:59;5.22;;;1.13;;
80293;SDS011;69594;43.516;1.498;2024-03-08T02:48:25;5.70;;;1.00;;
80293;SDS011;69594;43.516;1.498;2024-03-08T02:50:50;4.87;;;0.93;;
80293;SDS011;69594;43.516;1.498;2024-03-08T02:53:16;4.15;;;0.88;;
80293;SDS011;69594;43.516;1.498;2024-03-08T02:55:43;5.97;;;1.15;;
80293;SDS011;69594;43.516;1.498;2024-03-08T02:58:09;5.20;;;1.30;;
80293;SDS011;69594;43.516;1.498;2024-03-08T03:00:35;4.32;;;0.98;;
80293;SDS011;69594;43.516;1.498;2024-03-08T03:03:01;2.87;;;0.90;;
80293;SDS011;69594;43.516;1.498;2024-03-08T03:05:28;4.40;;;0.90;;
80293;SDS011;69594;43.516;1.498;2024-03-08T03:07:54;4.82;;;2.05;;
80293;SDS011;69594;43.516;1.498;2024-03-08T03:10:20;5.60;;;1.57;;
80293;SDS011;69594;43.516;1.498;2024-03-08T03:12:47;5.00;;;0.90;;
80293;SDS011;69594;43.516;1.498;2024-03-08T03:15:14;15.55;;;1.17;;
80293;SDS011;69594;43.516;1.498;2024-03-08T03:17:45;8.38;;;0.90;;
80293;SDS011;69594;43.516;1.498;2024-03-08T03:20:11;5.68;;;1.02;;
80293;SDS011;69594;43.516;1.498;2024-03-08T03:22:47;4.53;;;1.10;;
80293;SDS011;69594;43.516;1.498;2024-03-08T03:25:17;2.80;;;0.73;;
80293;SDS011;69594;43.516;1.498;2024-03-08T03:27:49;3.35;;;0.93;;
80293;SDS011;69594;43.516;1.498;2024-03-08T03:30:15;4.00;;;1.48;;
80293;SDS011;69594;43.516;1.498;2024-03-08T03:32:47;7.18;;;1.23;;
80293;SDS011;69594;43.516;1.498;2024-03-08T03:35:14;2.83;;;1.00;;
80293;SDS011;69594;43.516;1.498;2024-03-08T03:37:40;4.13;;;1.00;;
80293;SDS011;69594;43.516;1.498;2024-03-08T03:40:08;2.72;;;0.80;;
80293;SDS011;69594;43.516;1.498;2024-03-08T03:42:34;3.85;;;0.90;;
80293;SDS011;69594;43.516;1.498;2024-03-08T03:44:59;4.47;;;0.70;;
80293;SDS011;69594;43.516;1.498;2024-03-08T03:47:25;3.43;;;1.10;;
80293;SDS011;69594;43.516;1.498;2024-03-08T03:49:52;3.40;;;0.98;;
80293;SDS011;69594;43.516;1.498;2024-03-08T03:52:19;3.13;;;0.93;;
80293;SDS011;69594;43.516;1.498;2024-03-08T03:54:44;2.43;;;0.70;;
80293;SDS011;69594;43.516;1.498;2024-03-08T03:57:10;3.20;;;0.85;;
80293;SDS011;69594;43.516;1.498;2024-03-08T03:59:37;3.20;;;0.63;;
80293;SDS011;69594;43.516;1.498;2024-03-08T04:02:02;3.57;;;0.70;;
80293;SDS011;69594;43.516;1.498;2024-03-08T04:04:29;2.33;;;0.80;;
80293;SDS011;69594;43.516;1.498;2024-03-08T04:06:54;1.73;;;0.70;;
80293;SDS011;69594;43.516;1.498;2024-03-08T04:09:20;3.93;;;0.97;;
80293;SDS011;69594;43.516;1.498;2024-03-08T04:11:47;6.53;;;1.25;;
80293;SDS011;69594;43.516;1.498;2024-03-08T04:14:15;1.60;;;0.73;;
80293;SDS011;69594;43.516;1.498;2024-03-08T04:16:40;3.57;;;0.70;;
80293;SDS011;69594;43.516;1.498;2024-03-08T04:19:06;1.60;;;0.60;;
80293;SDS011;69594;43.516;1.498;2024-03-08T04:21:32;5.60;;;0.97;;
80293;SDS011;69594;43.516;1.498;2024-03-08T04:23:57;4.23;;;0.80;;
80293;SDS011;69594;43.516;1.498;2024-03-08T04:26:23;6.03;;;1.23;;
80293;SDS011;69594;43.516;1.498;2024-03-08T04:28:49;3.33;;;0.70;;
80293;SDS011;69594;43.516;1.498;2024-03-08T04:31:14;6.18;;;1.10;;
80293;SDS011;69594;43.516;1.498;2024-03-08T04:33:40;2.85;;;0.70;;
80293;SDS011;69594;43.516;1.498;2024-03-08T04:36:06;3.38;;;0.93;;
80293;SDS011;69594;43.516;1.498;2024-03-08T04:38:32;7.45;;;0.77;;
80293;SDS011;69594;43.516;1.498;2024-03-08T04:40:58;3.00;;;0.80;;
80293;SDS011;69594;43.516;1.498;2024-03-08T04:43:27;3.40;;;1.15;;
80293;SDS011;69594;43.516;1.498;2024-03-08T04:45:55;3.28;;;0.80;;
80293;SDS011;69594;43.516;1.498;2024-03-08T04:48:20;4.00;;;0.90;;
80293;SDS011;69594;43.516;1.498;2024-03-08T04:50:46;4.30;;;0.90;;
80293;SDS011;69594;43.516;1.498;2024-03-08T04:53:12;6.32;;;1.30;;
80293;SDS011;69594;43.516;1.498;2024-03-08T04:55:37;6.60;;;1.48;;
80293;SDS011;69594;43.516;1.498;2024-03-08T04:58:04;4.80;;;1.35;;
80293;SDS011;69594;43.516;1.498;2024-03-08T05:00:31;3.25;;;0.90;;
80293;SDS011;69594;43.516;1.498;2024-03-08T05:02:58;8.93;;;0.80;;
80293;SDS011;69594;43.516;1.498;2024-03-08T05:05:23;3.17;;;0.77;;
80293;SDS011;69594;43.516;1.498;2024-03-08T05:07:48;7.13;;;1.23;;
80293;SDS011;69594;43.516;1.498;2024-03-08T05:10:14;7.03;;;0.80;;
80293;SDS011;69594;43.516;1.498;2024-03-08T05:12:43;4.25;;;0.90;;
80293;SDS011;69594;43.516;1.498;2024-03-08T05:15:08;5.82;;;0.93;;
80293;SDS011;69594;43.516;1.498;2024-03-08T05:17:33;4.93;;;1.60;;
80293;SDS011;69594;43.516;1.498;2024-03-08T05:19:59;3.20;;;0.80;;
80293;SDS011;69594;43.516;1.498;2024-03-08T05:22:24;7.40;;;1.03;;
80293;SDS011;69594;43.516;1.498;2024-03-08T05:24:51;2.38;;;0.80;;
80293;SDS011;69594;43.516;1.498;2024-03-08T05:27:16;6.03;;;1.30;;
80293;SDS011;69594;43.516;1.498;2024-03-08T05:29:42;8.52;;;1.27;;
80293;SDS011;69594;43.516;1.498;2024-03-08T05:32:08;4.95;;;0.90;;
80293;SDS011;69594;43.516;1.498;2024-03-08T05:34:35;7.03;;;0.90;;
80293;SDS011;69594;43.516;1.498;2024-03-08T05:37:00;3.65;;;0.70;;
80293;SDS011;69594;43.516;1.498;2024-03-08T05:39:26;5.13;;;1.52;;
80293;SDS011;69594;43.516;1.498;2024-03-08T05:41:52;8.13;;;1.50;;
80293;SDS011;69594;43.516;1.498;2024-03-08T05:44:18;3.73;;;0.97;;
80293;SDS011;69594;43.516;1.498;2024-03-08T05:46:43;6.22;;;1.67;;
80293;SDS011;69594;43.516;1.498;2024-03-08T05:49:09;3.70;;;0.80;;
80293;SDS011;69594;43.516;1.498;2024-03-08T05:51:36;7.05;;;1.17;;
80293;SDS011;69594;43.516;1.498;2024-03-08T05:54:04;6.63;;;1.27;;
80293;SDS011;69594;43.516;1.498;2024-03-08T05:56:31;6.30;;;1.00;;
80293;SDS011;69594;43.516;1.498;2024-03-08T05:58:56;3.50;;;0.80;;
80293;SDS011;69594;43.516;1.498;2024-03-08T06:01:23;6.90;;;1.15;;
80293;SDS011;69594;43.516;1.498;2024-03-08T06:03:55;7.20;;;1.10;;
80293;SDS011;69594;43.516;1.498;2024-03-08T06:06:22;9.30;;;1.60;;
80293;SDS011;69594;43.516;1.498;2024-03-08T06:08:49;9.20;;;1.20;;
80293;SDS011;69594;43.516;1.498;2024-03-08T06:11:15;8.95;;;1.83;;
80293;SDS011;69594;43.516;1.498;2024-03-08T06:13:42;8.00;;;1.45;;
80293;SDS011;69594;43.516;1.498;2024-03-08T06:16:07;5.37;;;1.47;;
80293;SDS011;69594;43.516;1.498;2024-03-08T06:18:33;6.10;;;1.47;;
80293;SDS011;69594;43.516;1.498;2024-03-08T06:20:59;9.00;;;1.30;;
80293;SDS011;69594;43.516;1.498;2024-03-08T06:23:25;7.22;;;1.30;;
80293;SDS011;69594;43.516;1.498;2024-03-08T06:25:52;6.75;;;1.40;;
80293;SDS011;69594;43.516;1.498;2024-03-08T06:28:18;5.95;;;1.00;;
80293;SDS011;69594;43.516;1.498;2024-03-08T06:30:44;4.95;;;1.10;;
80293;SDS011;69594;43.516;1.498;2024-03-08T06:33:09;4.23;;;0.93;;
80293;SDS011;69594;43.516;1.498;2024-03-08T06:35:35;3.80;;;1.13;;
80293;SDS011;69594;43.516;1.498;2024-03-08T06:38:03;5.97;;;0.98;;
80293;SDS011;69594;43.516;1.498;2024-03-08T06:40:29;3.47;;;0.82;;
80293;SDS011;69594;43.516;1.498;2024-03-08T06:42:54;3.17;;;1.02;;
80293;SDS011;69594;43.516;1.498;2024-03-08T06:45:20;3.55;;;0.93;;
80293;SDS011;69594;43.516;1.498;2024-03-08T06:47:48;5.47;;;1.15;;
80293;SDS011;69594;43.516;1.498;2024-03-08T06:50:13;4.80;;;1.30;;
80293;SDS011;69594;43.516;1.498;2024-03-08T06:52:40;5.07;;;1.00;;
80293;SDS011;69594;43.516;1.498;2024-03-08T06:55:07;5.53;;;0.80;;
80293;SDS011;69594;43.516;1.498;2024-03-08T06:57:38;3.78;;;1.65;;
80293;SDS011;69594;43.516;1.498;2024-03-08T07:00:06;4.63;;;1.05;;
80293;SDS011;69594;43.516;1.498;2024-03-08T07:02:36;3.97;;;1.05;;
80293;SDS011;69594;43.516;1.498;2024-03-08T07:05:02;2.63;;;0.80;;
80293;SDS011;69594;43.516;1.498;2024-03-08T07:07:29;6.32;;;0.90;;
80293;SDS011;69594;43.516;1.498;2024-03-08T07:09:55;4.13;;;0.80;;
80293;SDS011;69594;43.516;1.498;2024-03-08T07:12:21;6.38;;;0.90;;
80293;SDS011;69594;43.516;1.498;2024-03-08T07:14:48;3.03;;;0.90;;
80293;SDS011;69594;43.516;1.498;2024-03-08T07:17:13;1.52;;;0.73;;
80293;SDS011;69594;43.516;1.498;2024-03-08T07:19:39;1.33;;;0.60;;
80293;SDS011;69594;43.516;1.498;2024-03-08T07:22:05;3.20;;;0.70;;
80293;SDS011;69594;43.516;1.498;2024-03-08T07:24:34;3.15;;;0.90;;
80293;SDS011;69594;43.516;1.498;2024-03-08T07:27:03;3.53;;;0.80;;
80293;SDS011;69594;43.516;1.498;2024-03-08T07:29:31;5.05;;;1.20;;
80293;SDS011;69594;43.516;1.498;2024-03-08T07:32:00;4.65;;;1.00;;
80293;SDS011;69594;43.516;1.498;2024-03-08T07:34:25;2.80;;;0.90;;
80293;SDS011;69594;43.516;1.498;2024-03-08T07:36:51;3.70;;;0.77;;
80293;SDS011;69594;43.516;1.498;2024-03-08T07:39:17;2.13;;;0.83;;
80293;SDS011;69594;43.516;1.498;2024-03-08T07:41:42;4.53;;;0.80;;
80293;SDS011;69594;43.516;1.498;2024-03-08T07:44:08;3.90;;;0.80;;
80293;SDS011;69594;43.516;1.498;2024-03-08T07:46:34;1.67;;;1.00;;
80293;SDS011;69594;43.516;1.498;2024-03-08T07:49:00;3.70;;;0.90;;
80293;SDS011;69594;43.516;1.498;2024-03-08T07:51:25;2.60;;;0.80;;
80293;SDS011;69594;43.516;1.498;2024-03-08T07:53:51;4.50;;;0.82;;
80293;SDS011;69594;43.516;1.498;2024-03-08T07:56:17;2.72;;;0.70;;
80293;SDS011;69594;43.516;1.498;2024-03-08T07:58:44;2.22;;;0.65;;
80293;SDS011;69594;43.516;1.498;2024-03-08T08:01:16;1.43;;;0.77;;
80293;SDS011;69594;43.516;1.498;2024-03-08T08:03:47;2.42;;;0.65;;
80293;SDS011;69594;43.516;1.498;2024-03-08T08:06:14;5.93;;;1.00;;
80293;SDS011;69594;43.516;1.498;2024-03-08T08:08:42;3.75;;;0.70;;
80293;SDS011;69594;43.516;1.498;2024-03-08T08:11:08;4.25;;;1.10;;
80293;SDS011;69594;43.516;1.498;2024-03-08T08:13:34;2.93;;;0.80;;
80293;SDS011;69594;43.516;1.498;2024-03-08T08:16:01;0.90;;;0.70;;
80293;SDS011;69594;43.516;1.498;2024-03-08T08:18:27;2.13;;;0.60;;
80293;SDS011;69594;43.516;1.498;2024-03-08T08:20:54;1.80;;;0.80;;
80293;SDS011;69594;43.516;1.498;2024-03-08T08:23:20;1.48;;;0.80;;
80293;SDS011;69594;43.516;1.498;2024-03-08T08:25:46;1.40;;;0.70;;
80293;SDS011;69594;43.516;1.498;2024-03-08T08:28:15;4.60;;;0.70;;
80293;SDS011;69594;43.516;1.498;2024-03-08T08:30:42;1.33;;;0.73;;
80293;SDS011;69594;43.516;1.498;2024-03-08T08:33:08;2.88;;;0.80;;
80293;SDS011;69594;43.516;1.498;2024-03-08T08:35:34;2.20;;;0.80;;
80293;SDS011;69594;43.516;1.498;2024-03-08T08:37:59;1.67;;;0.70;;
80293;SDS011;69594;43.516;1.498;2024-03-08T08:40:25;1.48;;;0.70;;
80293;SDS011;69594;43.516;1.498;2024-03-08T08:42:51;5.53;;;0.90;;
80293;SDS011;69594;43.516;1.498;2024-03-08T08:45:22;1.23;;;0.60;;
80293;SDS011;69594;43.516;1.498;2024-03-08T08:47:48;1.87;;;1.07;;
80293;SDS011;69594;43.516;1.498;2024-03-08T08:50:14;3.80;;;1.67;;
80293;SDS011;69594;43.516;1.498;2024-03-08T08:52:41;6.75;;;3.25;;
80293;SDS011;69594;43.516;1.498;2024-03-08T08:55:10;6.22;;;3.30;;
80293;SDS011;69594;43.516;1.498;2024-03-08T08:57:40;3.15;;;1.60;;
80293;SDS011;69594;43.516;1.498;2024-03-08T09:00:05;3.17;;;0.90;;
80293;SDS011;69594;43.516;1.498;2024-03-08T09:02:33;2.17;;;1.02;;
80293;SDS011;69594;43.516;1.498;2024-03-08T09:04:59;3.80;;;1.00;;
80293;SDS011;69594;43.516;1.498;2024-03-08T09:07:26;3.97;;;0.90;;
80293;SDS011;69594;43.516;1.498;2024-03-08T09:09:53;4.07;;;1.30;;
80293;SDS011;69594;43.516;1.498;2024-03-08T09:12:22;3.33;;;1.30;;
80293;SDS011;69594;43.516;1.498;2024-03-08T09:14:47;6.27;;;1.80;;
80293;SDS011;69594;43.516;1.498;2024-03-08T09:17:13;2.40;;;1.10;;
80293;SDS011;69594;43.516;1.498;2024-03-08T09:19:42;4.38;;;1.50;;
80293;SDS011;69594;43.516;1.498;2024-03-08T09:22:08;5.20;;;1.20;;
80293;SDS011;69594;43.516;1.498;2024-03-08T09:24:34;4.23;;;1.37;;
80293;SDS011;69594;43.516;1.498;2024-03-08T09:26:59;3.30;;;1.40;;
80293;SDS011;69594;43.516;1.498;2024-03-08T09:29:25;3.17;;;1.73;;
80293;SDS011;69594;43.516;1.498;2024-03-08T09:31:50;3.13;;;1.67;;
80293;SDS011;69594;43.516;1.498;2024-03-08T09:34:16;4.63;;;1.85;;
80293;SDS011;69594;43.516;1.498;2024-03-08T09:36:43;3.22;;;1.35;;
80293;SDS011;69594;43.516;1.498;2024-03-08T09:39:09;5.10;;;1.73;;
80293;SDS011;69594;43.516;1.498;2024-03-08T09:41:42;2.13;;;1.30;;
80293;SDS011;69594;43.516;1.498;2024-03-08T09:44:09;4.35;;;1.38;;
80293;SDS011;69594;43.516;1.498;2024-03-08T09:46:35;4.18;;;1.60;;
80293;SDS011;69594;43.516;1.498;2024-03-08T09:49:01;5.13;;;1.63;;
80293;SDS011;69594;43.516;1.498;2024-03-08T09:51:28;3.63;;;1.40;;
80293;SDS011;69594;43.516;1.498;2024-03-08T09:53:54;4.23;;;1.10;;
80293;SDS011;69594;43.516;1.498;2024-03-08T09:56:21;6.80;;;2.05;;
80293;SDS011;69594;43.516;1.498;2024-03-08T09:58:48;5.55;;;2.20;;
80293;SDS011;69594;43.516;1.498;2024-03-08T10:01:32;7.60;;;1.92;;
80293;SDS011;69594;43.516;1.498;2024-03-08T10:03:58;2.80;;;1.60;;
80293;SDS011;69594;43.516;1.498;2024-03-08T10:06:24;5.10;;;1.30;;
80293;SDS011;69594;43.516;1.498;2024-03-08T10:08:50;4.10;;;1.30;;
80293;SDS011;69594;43.516;1.498;2024-03-08T10:11:18;2.25;;;1.30;;
80293;SDS011;69594;43.516;1.498;2024-03-08T10:13:44;3.03;;;1.73;;
80293;SDS011;69594;43.516;1.498;2024-03-08T10:16:11;2.83;;;1.70;;
80293;SDS011;69594;43.516;1.498;2024-03-08T10:18:37;4.65;;;1.75;;
80293;SDS011;69594;43.516;1.498;2024-03-08T10:21:04;3.20;;;1.20;;
80293;SDS011;69594;43.516;1.498;2024-03-08T10:23:32;3.55;;;1.45;;
80293;SDS011;69594;43.516;1.498;2024-03-08T10:26:09;4.25;;;1.33;;
80293;SDS011;69594;43.516;1.498;2024-03-08T10:28:34;4.00;;;1.38;;
80293;SDS011;69594;43.516;1.498;2024-03-08T10:31:00;3.22;;;1.00;;
80293;SDS011;69594;43.516;1.498;2024-03-08T10:33:25;1.95;;;1.30;;
80293;SDS011;69594;43.516;1.498;2024-03-08T10:35:51;4.33;;;1.60;;
80293;SDS011;69594;43.516;1.498;2024-03-08T10:38:17;2.20;;;1.58;;
80293;SDS011;69594;43.516;1.498;2024-03-08T10:40:46;2.30;;;1.02;;
80293;SDS011;69594;43.516;1.498;2024-03-08T10:43:18;3.10;;;1.10;;
80293;SDS011;69594;43.516;1.498;2024-03-08T10:45:53;2.80;;;1.15;;
80293;SDS011;69594;43.516;1.498;2024-03-08T10:48:29;4.53;;;0.95;;
80293;SDS011;69594;43.516;1.498;2024-03-08T10:51:03;1.98;;;0.90;;
80293;SDS011;69594;43.516;1.498;2024-03-08T10:53:30;2.28;;;1.10;;
80293;SDS011;69594;43.516;1.498;2024-03-08T10:55:56;5.30;;;1.20;;
80293;SDS011;69594;43.516;1.498;2024-03-08T10:58:22;5.57;;;2.85;;
80293;SDS011;69594;43.516;1.498;2024-03-08T11:00:49;3.92;;;1.83;;
80293;SDS011;69594;43.516;1.498;2024-03-08T11:05:59;1.10;;;0.90;;
80293;SDS011;69594;43.516;1.498;2024-03-08T11:08:25;4.88;;;2.08;;
80293;SDS011;69594;43.516;1.498;2024-03-08T11:10:52;2.17;;;1.10;;
80293;SDS011;69594;43.516;1.498;2024-03-08T11:13:37;1.45;;;0.90;;
80293;SDS011;69594;43.516;1.498;2024-03-08T11:16:18;1.65;;;1.05;;
80293;SDS011;69594;43.516;1.498;2024-03-08T11:19:22;2.33;;;1.00;;
80293;SDS011;69594;43.516;1.498;2024-03-08T11:21:56;1.33;;;0.80;;
80293;SDS011;69594;43.516;1.498;2024-03-08T11:24:22;1.45;;;0.70;;
80293;SDS011;69594;43.516;1.498;2024-03-08T11:26:48;1.50;;;0.80;;
80293;SDS011;69594;43.516;1.498;2024-03-08T11:32:15;1.83;;;0.93;;
80293;SDS011;69594;43.516;1.498;2024-03-08T11:34:42;1.80;;;0.65;;
80293;SDS011;69594;43.516;1.498;2024-03-08T11:37:12;2.03;;;0.93;;
80293;SDS011;69594;43.516;1.498;2024-03-08T11:39:38;2.58;;;0.98;;
80293;SDS011;69594;43.516;1.498;2024-03-08T11:42:04;1.52;;;0.75;;
80293;SDS011;69594;43.516;1.498;2024-03-08T11:44:30;0.87;;;0.80;;
80293;SDS011;69594;43.516;1.498;2024-03-08T11:46:56;1.77;;;0.70;;
80293;SDS011;69594;43.516;1.498;2024-03-08T11:49:22;1.23;;;0.63;;
80293;SDS011;69594;43.516;1.498;2024-03-08T11:51:51;1.07;;;0.60;;
80293;SDS011;69594;43.516;1.498;2024-03-08T11:54:18;1.98;;;0.80;;
80293;SDS011;69594;43.516;1.498;2024-03-08T11:56:44;1.40;;;0.80;;
80293;SDS011;69594;43.516;1.498;2024-03-08T11:59:13;1.95;;;0.77;;
80293;SDS011;69594;43.516;1.498;2024-03-08T12:01:39;1.60;;;0.77;;
80293;SDS011;69594;43.516;1.498;2024-03-08T12:04:05;1.80;;;0.70;;
80293;SDS011;69594;43.516;1.498;2024-03-08T12:06:37;1.40;;;0.82;;
80293;SDS011;69594;43.516;1.498;2024-03-08T12:09:10;3.40;;;0.90;;
80293;SDS011;69594;43.516;1.498;2024-03-08T12:11:36;0.88;;;0.60;;
80293;SDS011;69594;43.516;1.498;2024-03-08T12:14:01;2.13;;;0.77;;
80293;SDS011;69594;43.516;1.498;2024-03-08T12:16:27;2.38;;;0.65;;
80293;SDS011;69594;43.516;1.498;2024-03-08T12:18:52;1.75;;;0.65;;
80293;SDS011;69594;43.516;1.498;2024-03-08T12:21:21;1.00;;;0.70;;
80293;SDS011;69594;43.516;1.498;2024-03-08T12:24:01;1.20;;;0.70;;
80293;SDS011;69594;43.516;1.498;2024-03-08T12:26:28;2.10;;;0.80;;
80293;SDS011;69594;43.516;1.498;2024-03-08T12:28:53;1.47;;;0.70;;
80293;SDS011;69594;43.516;1.498;2024-03-08T12:31:18;1.00;;;0.60;;
80293;SDS011;69594;43.516;1.498;2024-03-08T12:33:50;0.65;;;0.57;;
80293;SDS011;69594;43.516;1.498;2024-03-08T12:36:17;1.80;;;0.68;;
80293;SDS011;69594;43.516;1.498;2024-03-08T12:38:49;0.73;;;0.63;;
80293;SDS011;69594;43.516;1.498;2024-03-08T12:41:15;0.80;;;0.60;;
80293;SDS011;69594;43.516;1.498;2024-03-08T12:43:45;1.17;;;0.77;;
80293;SDS011;69594;43.516;1.498;2024-03-08T12:46:19;0.83;;;0.50;;
80293;SDS011;69594;43.516;1.498;2024-03-08T12:48:45;0.95;;;0.68;;
80293;SDS011;69594;43.516;1.498;2024-03-08T12:51:14;1.77;;;0.75;;
80293;SDS011;69594;43.516;1.498;2024-03-08T12:53:43;1.50;;;0.75;;
80293;SDS011;69594;43.516;1.498;2024-03-08T12:56:12;1.63;;;0.40;;
80293;SDS011;69594;43.516;1.498;2024-03-08T12:58:38;0.60;;;0.60;;
80293;SDS011;69594;43.516;1.498;2024-03-08T13:01:04;0.57;;;0.50;;
80293;SDS011;69594;43.516;1.498;2024-03-08T13:03:32;0.57;;;0.55;;
80293;SDS011;69594;43.516;1.498;2024-03-08T13:05:59;1.20;;;0.63;;
80293;SDS011;69594;43.516;1.498;2024-03-08T13:08:25;1.13;;;0.40;;
80293;SDS011;69594;43.516;1.498;2024-03-08T13:10:52;0.57;;;0.50;;
80293;SDS011;69594;43.516;1.498;2024-03-08T13:13:19;1.40;;;0.60;;
80293;SDS011;69594;43.516;1.498;2024-03-08T13:15:44;0.57;;;0.50;;
80293;SDS011;69594;43.516;1.498;2024-03-08T13:18:10;1.40;;;0.45;;
80293;SDS011;69594;43.516;1.498;2024-03-08T13:20:36;2.10;;;0.63;;
80293;SDS011;69594;43.516;1.498;2024-03-08T13:23:04;1.88;;;0.55;;
80293;SDS011;69594;43.516;1.498;2024-03-08T13:25:30;0.60;;;0.50;;
80293;SDS011;69594;43.516;1.498;2024-03-08T13:27:56;0.50;;;0.50;;
80293;SDS011;69594;43.516;1.498;2024-03-08T13:30:24;1.27;;;0.68;;
80293;SDS011;69594;43.516;1.498;2024-03-08T13:32:52;1.25;;;0.80;;
80293;SDS011;69594;43.516;1.498;2024-03-08T13:35:18;0.77;;;0.60;;
80293;SDS011;69594;43.516;1.498;2024-03-08T13:37:49;0.90;;;0.60;;
80293;SDS011;69594;43.516;1.498;2024-03-08T13:40:15;2.08;;;0.38;;
80293;SDS011;69594;43.516;1.498;2024-03-08T13:42:43;1.88;;;0.45;;
80293;SDS011;69594;43.516;1.498;2024-03-08T13:45:09;0.50;;;0.40;;
80293;SDS011;69594;43.516;1.498;2024-03-08T13:47:37;0.82;;;0.60;;
80293;SDS011;69594;43.516;1.498;2024-03-08T13:50:04;0.35;;;0.35;;
80293;SDS011;69594;43.516;1.498;2024-03-08T13:52:37;0.45;;;0.45;;
80293;SDS011;69594;43.516;1.498;2024-03-08T13:55:04;2.17;;;0.50;;
80293;SDS011;69594;43.516;1.498;2024-03-08T13:57:31;0.85;;;0.55;;
80293;SDS011;69594;43.516;1.498;2024-03-08T13:59:57;0.98;;;0.50;;
80293;SDS011;69594;43.516;1.498;2024-03-08T14:02:22;1.00;;;0.60;;
80293;SDS011;69594;43.516;1.498;2024-03-08T14:04:53;0.83;;;0.50;;
80293;SDS011;69594;43.516;1.498;2024-03-08T14:07:18;0.60;;;0.60;;
80293;SDS011;69594;43.516;1.498;2024-03-08T14:09:44;1.57;;;0.70;;
80293;SDS011;69594;43.516;1.498;2024-03-08T14:12:09;0.85;;;0.55;;
80293;SDS011;69594;43.516;1.498;2024-03-08T14:14:35;0.70;;;0.50;;
80293;SDS011;69594;43.516;1.498;2024-03-08T14:17:03;0.60;;;0.60;;
80293;SDS011;69594;43.516;1.498;2024-03-08T14:19:29;0.60;;;0.50;;
80293;SDS011;69594;43.516;1.498;2024-03-08T14:21:56;1.77;;;0.80;;
80293;SDS011;69594;43.516;1.498;2024-03-08T14:24:21;1.17;;;0.90;;
80293;SDS011;69594;43.516;1.498;2024-03-08T14:26:47;1.25;;;0.77;;
80293;SDS011;69594;43.516;1.498;2024-03-08T14:29:14;2.10;;;0.63;;
80293;SDS011;69594;43.516;1.498;2024-03-08T14:31:39;1.45;;;0.55;;
80293;SDS011;69594;43.516;1.498;2024-03-08T14:34:08;1.30;;;0.60;;
80293;SDS011;69594;43.516;1.498;2024-03-08T14:36:34;0.60;;;0.50;;
80293;SDS011;69594;43.516;1.498;2024-03-08T14:38:59;0.47;;;0.47;;
80293;SDS011;69594;43.516;1.498;2024-03-08T14:41:25;0.87;;;0.40;;
80293;SDS011;69594;43.516;1.498;2024-03-08T14:43:52;0.57;;;0.55;;
80293;SDS011;69594;43.516;1.498;2024-03-08T14:46:22;0.60;;;0.60;;
80293;SDS011;69594;43.516;1.498;2024-03-08T14:48:51;0.82;;;0.60;;
80293;SDS011;69594;43.516;1.498;2024-03-08T14:51:17;0.70;;;0.60;;